Résultats événements

20/07/2019 Chpt de France d'aquathlon-Seniors et Masters




Sortie natation

Arrivée
Categorie:

Clt Temps de course Nom Dos Cat Temps sur l'intervalle Clt int. Gain
1 00:26:48 SAYER THOMAS 32 MS2 00:14:53 2 0
2 00:27:20 BERLAND ARTHUR 22 MS1 00:14:50 1 4
3 00:27:41 CHIVOT ARNAUD 117 MS3 00:15:03 3 5
4 00:28:01 LESSMANN NATHAN 23 MS1 00:15:44 7 -1
5 00:28:39 GAYANT BRICE 11 MS1 00:16:05 10 2
6 00:28:50 MOURIER GUILHEM 5 MS1 00:16:47 24 -4
7 00:28:55 MORTIER JEREMY 21 MS1 00:16:26 15 -2
8 00:29:03 GALBOURDIN PIERRE 25 MS1 00:15:35 4 15
9 00:29:12 DELAGARDE REMI 13 MS1 00:15:55 9 8
10 00:29:21 ROYE LIONEL 60 MV1 00:15:40 5 20
11 00:29:30 TEOFILI THOMAS 24 MS1 00:16:29 16 -1
12 00:29:35 MENANT NATHAN 3 MS1 00:16:40 22 -3
13 00:29:38 HENEMAN GUILLAUME 39 MS3 00:16:06 11 16
14 00:29:42 DE POORTER AXEL 30 MS2 00:16:26 14 21
15 00:29:45 PORAS MAXIME 16 MS1 00:16:38 20 -3
16 00:29:56 GUILLOUX ANTOINE 2 MS1 00:16:14 13 16
17 00:29:57 LEHAIR JEANNE 126 FS1 00:16:44 23 -1
18 00:30:00 KATGELY TéO 6 MS1 00:16:36 18 3
19 00:30:14 ANTOINE PHILIPPE 57 MV1 00:15:41 6 29
20 00:30:15 DEZEUZES HUGO 36 MS2 00:15:51 8 25
21 00:30:17 COCHIN LéO 9 MS1 00:16:53 27 -1
22 00:30:19 GAMIN CLéMENT 15 MS1 00:16:54 28 0
23 00:30:23 LOUCHAERT EMMANUEL 52 MV1 00:16:51 26 5
24 00:30:24 BOIRON CORENTIN 27 MS2 00:16:09 12 15
25 00:30:37 HENEMAN BENOIT 10 MS1 00:17:30 43 -12
26 00:30:39 TUPET XAVIER 47 MV1 00:16:58 32 7
27 00:30:40 RACINE JOHANN 8 MS1 00:16:39 21 8
28 00:30:50 PIERRAT FRéDéRIC 41 MS4 00:17:09 33 3
29 00:30:50 MERLE CELIA 124 FS1 00:17:41 46 -14
30 00:31:00 LE DOEUFF HUGO 14 MS1 00:16:37 19 14
31 00:31:03 AMO THOMAS 40 MS3 00:16:48 25 9
32 00:31:03 OESTERLE OLIVIER 56 MV1 00:17:44 48 -14
33 00:31:16 LANCELIN HUGO 7 MS1 00:16:56 30 9
34 00:31:19 POUSSON JULIEN 35 MS2 00:18:56 79 -30
35 00:31:24 COLLURA THOMAS 28 MS2 00:18:02 55 -16
36 00:31:41 BOSSION FABRICE 85 MV3 00:17:31 44 1
37 00:31:42 LE NARVOR LOïC 33 MS2 00:17:20 37 6
38 00:31:49 FOUCHET DYLAN 31 MS2 00:18:19 66 -12
39 00:31:57 LE FLOCH ARMEL 83 MV2 00:17:10 34 14
40 00:32:01 IEMMOLO JULIE 130 FS1 00:18:34 73 -16
41 00:32:14 BOUVET ANTOINE 18 MS1 00:19:05 86 -27
42 00:32:15 PIORUN GAETAN 46 MV1 00:16:54 29 31
43 00:32:19 LOUVET FRANCK 69 MV2 00:16:34 17 46
44 00:32:25 CONSTANTIN OLIVIER 82 MV2 00:18:06 59 -3
45 00:32:26 LEROUX JESSICA 138 FS2 00:18:13 63 -7
46 00:32:30 DANIELLOU JUSTINE 123 FS1 00:18:04 56 0
47 00:32:37 MARIONNEAU MYLENE 145 FS3 00:18:00 54 3
48 00:32:41 KELSALL CLAUDIA 137 FS1 00:17:11 35 30
49 00:32:42 POURTEYRON OLIVIER 59 MV1 00:17:24 38 42
50 00:32:45 HIRIBERRY PATRICE 65 MV2 00:17:26 39 21
51 00:32:48 KAUFFMANT CHRISTOPHE 63 MV2 00:17:14 36 29
52 00:32:56 LARZUL GWLADYS 135 FS1 00:19:52 101 -41
53 00:32:57 LEFEBVRE GREGORY 81 MV2 00:18:31 71 -6
54 00:33:00 POSTIC THOMAS 19 MS1 00:17:29 42 25
55 00:33:01 PORAS FABRICE 88 MV3 00:17:45 49 12
56 00:33:04 DUPUY ALEXANDRE 49 MV1 00:18:23 69 -4
57 00:33:05 GABILLARD GRéGORY 12 MS1 00:17:40 45 19
58 00:33:12 COLOMBET NATHAN 1 MS1 00:18:09 61 -1
59 00:33:13 PERRIN PATRICK 68 MV2 00:18:06 57 6
60 00:33:20 MARTEL BERENGERE 125 FS1 00:18:26 70 -6
61 00:33:22 PRADAL THIERRY 80 MV2 00:17:27 41 29
62 00:33:24 LUCAS ADELINE 128 FS1 00:18:20 67 -2
63 00:33:29 VERHAEGHE GAEL 4 MS1 00:17:54 52 18
64 00:33:30 BARTHELEMY CLAIRE 140 FS2 00:19:24 95 -28
65 00:33:40 BOMBLED SAMUEL 72 MV2 00:18:00 53 20
66 00:33:42 TEMMERMAN HERVE 107 MV4 00:18:07 60 17
67 00:33:46 BARREAU GUILLAUME 55 MV1 00:18:10 62 17
68 00:33:46 DUCREUX EMMA 120 FS1 00:20:15 104 -41
69 00:33:47 OTT MARIANE 139 FS2 00:18:44 76 -11
70 00:33:51 MARANO JULIE 121 FS1 00:20:22 107 -45
71 00:33:51 PIERRAT DENIS 112 MV4 00:17:43 47 20
72 00:33:52 BELLEGO VALéRIE 153 FV2 00:19:12 91 -21
73 00:33:52 SAGNIER MATHILDE 146 FS4 00:18:45 77 -9
74 00:34:05 DESTANG DIMITRI 17 MS1 00:18:41 74 0
75 00:34:06 MARQUANT THIERRY 66 MV2 00:18:42 75 0
76 00:34:06 BOUINEAU FLAVIEN 50 MV1 00:18:51 78 -8
77 00:34:09 BARRET STéPHANE 95 MV3 00:19:09 88 -22
78 00:34:12 MARTINIE PATRICK 62 MV1 00:20:25 109 -44
79 00:34:19 DUQUENNE QUENTIN 43 MS4 00:19:44 98 -30
80 00:34:20 LAFFERRIERE LAURENT 98 MV3 00:17:27 40 22
81 00:34:29 EMERY SEBASTIEN 70 MV2 00:19:09 89 12
82 00:34:44 HENRY GUILLAUME 90 MV3 00:18:33 72 10
83 00:34:45 DOUTAU MAéVA 118 FS1 00:19:40 97 -21
84 00:34:46 GARAUD SIMON 20 MS1 00:18:16 64 10
85 00:34:51 STEPHAN JULIE 149 FS4 00:19:45 99 -22
86 00:34:51 BONTANT MARGAUX 122 FS1 00:19:06 87 11
87 00:35:05 FOURNIER LUC 78 MV2 00:19:21 94 1
88 00:35:19 DE PARSEVAL CORINNE 156 FV2 00:20:11 103 -22
89 00:35:31 ARNAUD DAVID 89 MV3 00:18:57 80 7
90 00:35:34 MARRE FANNY 136 FS1 00:20:30 111 -31
91 00:35:40 CIBERT GOTHON NOEMIE 127 FS1 00:20:20 106 -19
92 00:35:42 VAN ROOKHUIJZEN ERIK 86 MV3 00:20:37 113 -31
93 00:35:46 BRIOL MATTHIEU 77 MV2 00:19:04 85 6
94 00:35:48 DELAGE LUDOVIC 61 MV1 00:19:12 90 4
95 00:35:51 HALARD AURéLIEN 42 MS4 00:16:56 31 33
96 00:35:52 FONTEIN ERNA 152 FV1 00:19:03 82 5
97 00:36:00 BERNY KEVIN 34 MS2 00:18:06 58 18
98 00:36:06 HUMILIERE AUDREY 119 FS1 00:21:03 119 -42
99 00:36:09 BALAYRE MICHAEL 44 MS4 00:17:53 51 19
100 00:36:14 GALLOU STEVEN 79 MV2 00:18:59 81 6
101 00:36:20 MOUSTAKIR JULIA 143 FS3 00:21:03 118 -32
102 00:36:25 PEYRET HUGUES 54 MV1 00:19:28 96 2
103 00:36:32 LECLOU GERALDINE 151 FV1 00:21:13 120 -33
104 00:36:39 HAMON MARIE LINE 157 FV2 00:18:23 68 15
105 00:36:57 BLIN EMMANUEL 100 MV3 00:18:18 65 20
106 00:37:01 CREBASSA DENIS 84 MV2 00:17:46 50 30
107 00:37:14 AUGUSTIN JEROME 74 MV2 00:21:00 117 3
108 00:37:17 LARROZE-LAUGA CAMILLE 134 FS1 00:21:37 128 -22
109 00:37:17 GRIGNOUX DOMINIQUE 101 MV4 00:20:41 114 -12
110 00:37:21 AZZOPARDI ANTHONY 37 MS3 00:19:04 84 11
111 00:37:30 MAGEUX JULIEN 58 MV1 00:21:55 133 -29
112 00:37:35 SUBLET LIONEL 73 MV2 00:19:03 83 11
113 00:37:40 BILLAULT FABRICE 93 MV3 00:21:14 121 -20
114 00:37:54 MOINEAU SEBASTIEN 48 MV1 00:19:21 92 10
115 00:38:00 GUITTENY CELINE 150 FV1 00:21:29 126 -20
116 00:38:14 BRUDY PASCAL 92 MV3 00:20:27 110 -4
117 00:38:31 BOISSIERE DANIEL 108 MV4 00:21:29 125 -12
118 00:38:34 GUILLEMET FREDERIC 53 MV1 00:20:18 105 2
119 00:38:35 MOREAU EMELYNE 129 FS1 00:22:55 140 -32
120 00:38:35 RENARD MORGANE 141 FS2 00:23:10 141 -43
121 00:38:37 TABANON STEPHANE 45 MV1 00:20:25 108 -4
122 00:38:40 JAECKERT FREDERIC 94 MV3 00:20:48 115 -8
123 00:38:44 PHILIPPE PERRINE 144 FS3 00:21:20 124 -15
124 00:38:47 MAUBRAS ALAIN 115 MV5 00:19:49 100 5
125 00:38:49 AUGé EMILIE 147 FS4 00:21:15 122 -14
126 00:39:07 MASSON BERTRAND 75 MV2 00:21:47 132 -19
127 00:39:11 LANGE STEPHANE 67 MV2 00:20:02 102 6
128 00:39:27 ZERYOUH HASSANE 109 MV4 00:19:21 93 11
129 00:39:42 CARLIER JUSTINE 131 FS1 00:22:54 139 -29
130 00:40:01 BESCHERON JEAN DANIEL 113 MV5 00:22:30 136 -20
131 00:40:02 POURTEYRON JULIE 148 FS4 00:21:16 123 -5
132 00:40:06 DEVAUX ERIC 106 MV4 00:21:37 129 -10
133 00:40:41 LE ROUX NATACHA 155 FV2 00:22:32 138 -17
134 00:40:50 BASLE VICTOIRE 132 FS1 00:23:19 143 -25
135 00:40:50 PICABEA PIERRE 105 MV4 00:21:36 127 -1
136 00:40:56 ARNAUD DIDIER 87 MV3 00:21:57 134 -6
137 00:41:00 OSTER LAURENT 91 MV3 00:20:49 116 3
138 00:41:21 BOYER PIERRE 71 MV2 00:22:07 135 -3
139 00:42:24 DUCATILLION VALERIE 158 FV3 00:22:32 137 -1
140 00:42:26 BAYLE CHRISTELLE 160 FV3 00:25:31 149 -37
141 00:42:40 DUBOIS ALEX 104 MV4 00:21:39 130 1
142 00:42:52 VERHAEGHE DIDIER 103 MV4 00:20:33 112 5
143 00:42:54 DESCOUS LAURENT 96 MV3 00:24:02 145 -16
144 00:43:11 ARNOUIL PATRICK 110 MV4 00:23:20 144 -7
145 00:43:16 FLOURAC FLORENCE 162 FV4 00:25:27 148 -32
146 00:44:22 JAGUENEAU HAYETTE 161 FV3 00:23:13 142 -3
147 00:45:32 BASLé PATRICE 97 MV3 00:21:41 131 4
148 00:45:40 CARMIER JEAN 114 MV5 00:24:23 146 -3
149 00:46:21 FUNEROT FLORENT 38 MS3 00:25:08 147 -5
150 00:46:59 DESTAILLEUR NICOLE 165 FV6 00:27:57 154 -19
151 00:47:50 PORTA MARIE-HéLèNE 164 FV5 00:26:27 151 -5
152 00:47:59 BARON THIERRY 111 MV4 00:27:40 152 -11
153 00:49:29 CAO SILLIAUME ISABELLE 159 FV3 00:26:19 150 -3
154 00:50:16 DROLEZ CLARA 154 FV2 00:31:12 157 -22
155 00:50:58 DUGOUJON MARYSE 163 FV4 00:27:50 153 -6
156 00:52:54 PHILIPPE GILLES 99 MV3 00:29:59 156 -8
157 00:55:27 BAUDET BERNARD 116 MV8 00:28:17 155 -5


Restez connectés à vos performances